Time;durP1;ratioP1;P1;durP2;ratioP2;P2;SDS_P1;SDS_P2;PMS_P1;PMS_P2;Temp;Humidity;BMP_temperature;BMP_pressure;BME280_temperature;BME280_humidity;BME280_pressure;Samples;Min_cycle;Max_cycle;Signal;HPM_P1;HPM_P2
2023/07/28 00:02:35;;;;;;;11.93;11.02;;;;;;;;;;10159129;28;20046;-69
2023/07/28 00:07:35;;;;;;;11.60;10.65;;;;;;;;;;10157539;28;20145;-70
2023/07/28 00:12:31;;;;;;;12.32;11.30;;;;;;;;;;10153534;28;20839;-70
2023/07/28 00:17:27;;;;;;;13.13;12.02;;;;;;;;;;10136146;28;20050;-70
2023/07/28 00:22:24;;;;;;;11.45;10.65;;;;;;;;;;10155877;28;20050;-73
2023/07/28 00:27:20;;;;;;;11.95;10.95;;;;;;;;;;10141398;28;20093;-73
2023/07/28 00:32:17;;;;;;;10.95;10.15;;;;;;;;;;10161786;28;20074;-74
2023/07/28 00:37:13;;;;;;;12.05;11.10;;;;;;;;;;10142501;28;20047;-70
2023/07/28 00:42:09;;;;;;;11.52;10.63;;;;;;;;;;10146148;28;20464;-70
2023/07/28 00:47:06;;;;;;;11.88;10.98;;;;;;;;;;10139524;28;20115;-70
2023/07/28 00:52:02;;;;;;;11.63;10.73;;;;;;;;;;10157502;28;20524;-70
2023/07/28 00:56:59;;;;;;;12.18;11.10;;;;;;;;;;10149137;28;20125;-70
2023/07/28 01:01:55;;;;;;;11.35;10.55;;;;;;;;;;10165694;28;20535;-70
2023/07/28 01:06:52;;;;;;;12.10;11.20;;;;;;;;;;10147693;28;20063;-69
2023/07/28 01:11:58;;;;;;;11.15;10.25;;;;;;;;;;10161408;28;20527;-70
2023/07/28 01:16:55;;;;;;;10.85;10.05;;;;;;;;;;10155934;28;20062;-69
2023/07/28 01:22:04;;;;;;;11.48;10.68;;;;;;;;;;10157222;28;20104;-70
2023/07/28 01:27:01;;;;;;;12.05;11.13;;;;;;;;;;10148959;28;20121;-70
2023/07/28 01:31:59;;;;;;;10.90;10.10;;;;;;;;;;10148262;28;20109;-70
2023/07/28 01:36:55;;;;;;;10.98;10.18;;;;;;;;;;10147790;28;20449;-69
2023/07/28 01:41:51;;;;;;;11.85;10.95;;;;;;;;;;10153556;28;20125;-71
2023/07/28 01:46:48;;;;;;;10.73;9.98;;;;;;;;;;10132632;28;20054;-71
2023/07/28 01:51:44;;;;;;;10.93;10.13;;;;;;;;;;10144639;28;20096;-72
2023/07/28 01:56:40;;;;;;;10.50;9.68;;;;;;;;;;10147484;28;20058;-72
2023/07/28 02:01:36;;;;;;;10.52;9.75;;;;;;;;;;10147965;28;20073;-72
2023/07/28 02:06:33;;;;;;;11.73;10.32;;;;;;;;;;10151497;28;20060;-72
2023/07/28 02:11:29;;;;;;;10.73;10.02;;;;;;;;;;10162536;28;20049;-72
2023/07/28 02:16:27;;;;;;;10.82;10.02;;;;;;;;;;10148568;28;20109;-72
2023/07/28 02:21:24;;;;;;;10.98;10.18;;;;;;;;;;10156989;28;20073;-72
2023/07/28 02:26:20;;;;;;;10.82;9.93;;;;;;;;;;10152315;28;20097;-72
2023/07/28 02:31:16;;;;;;;11.52;10.73;;;;;;;;;;10146019;28;20054;-72
2023/07/28 02:36:13;;;;;;;10.90;10.10;;;;;;;;;;10163171;28;20046;-69
2023/07/28 02:41:09;;;;;;;11.95;10.98;;;;;;;;;;10160416;28;20058;-69
2023/07/28 02:46:06;;;;;;;11.77;10.88;;;;;;;;;;10157427;28;20058;-69
2023/07/28 02:51:03;;;;;;;12.10;11.05;;;;;;;;;;10156328;28;20057;-70
2023/07/28 02:55:59;;;;;;;11.63;10.82;;;;;;;;;;10163424;28;20512;-70
2023/07/28 03:00:55;;;;;;;13.95;12.85;;;;;;;;;;10157342;28;20054;-70
2023/07/28 03:05:52;;;;;;;13.88;12.82;;;;;;;;;;10158619;28;20054;-69
2023/07/28 03:10:48;;;;;;;12.23;11.32;;;;;;;;;;10159304;28;20620;-70
2023/07/28 03:15:45;;;;;;;11.95;10.98;;;;;;;;;;10155735;28;20608;-70
2023/07/28 03:20:41;;;;;;;11.43;10.63;;;;;;;;;;10159751;28;20579;-70
2023/07/28 03:25:37;;;;;;;11.20;10.30;;;;;;;;;;10156663;28;20046;-70
2023/07/28 03:30:33;;;;;;;11.10;10.20;;;;;;;;;;10158360;28;20050;-70
2023/07/28 03:35:30;;;;;;;10.70;9.98;;;;;;;;;;10154201;28;20057;-70
2023/07/28 03:40:26;;;;;;;10.65;9.85;;;;;;;;;;10151030;28;20054;-70
2023/07/28 03:45:23;;;;;;;10.68;9.73;;;;;;;;;;10159186;28;20105;-70
2023/07/28 03:50:19;;;;;;;10.68;9.88;;;;;;;;;;10152935;28;20050;-71
2023/07/28 03:55:15;;;;;;;11.38;10.38;;;;;;;;;;10162170;28;20062;-70
2023/07/28 04:00:13;;;;;;;10.95;10.15;;;;;;;;;;10153211;28;20153;-69
2023/07/28 04:05:10;;;;;;;11.10;10.40;;;;;;;;;;10154355;28;20097;-70
2023/07/28 04:10:06;;;;;;;10.23;9.52;;;;;;;;;;10160123;28;20067;-69
2023/07/28 04:15:03;;;;;;;10.98;10.27;;;;;;;;;;10138806;28;20057;-68
2023/07/28 04:19:59;;;;;;;11.32;10.52;;;;;;;;;;10161872;28;20054;-69
2023/07/28 04:24:55;;;;;;;11.50;10.70;;;;;;;;;;10143600;28;20501;-69
2023/07/28 04:29:52;;;;;;;11.95;11.10;;;;;;;;;;10147765;28;20050;-71
2023/07/28 04:34:48;;;;;;;12.80;11.80;;;;;;;;;;10144789;28;20038;-73
2023/07/28 04:45:22;;;;;;;12.82;11.68;;;;;;;;;;10255164;22;20053;-72
2023/07/28 04:56:28;;;;;;;12.50;11.60;;;;;;;;;;10251905;28;20044;-72
2023/07/28 05:01:25;;;;;;;12.27;11.38;;;;;;;;;;10277183;22;20576;-71
2023/07/28 05:06:21;;;;;;;12.88;11.98;;;;;;;;;;10223029;28;20147;-71
2023/07/28 05:11:17;;;;;;;13.40;12.40;;;;;;;;;;10220987;28;20049;-73
2023/07/28 05:16:14;;;;;;;13.52;12.60;;;;;;;;;;10218674;28;20068;-74
2023/07/28 05:21:10;;;;;;;13.07;12.18;;;;;;;;;;10200635;28;20097;-73
2023/07/28 05:26:07;;;;;;;12.25;11.45;;;;;;;;;;10224818;28;20519;-73
2023/07/28 05:31:36;;;;;;;13.00;12.10;;;;;;;;;;10248394;22;20053;-73
2023/07/28 05:36:55;;;;;;;13.07;12.18;;;;;;;;;;10221138;28;20045;-73
2023/07/28 05:41:51;;;;;;;13.38;12.45;;;;;;;;;;10273173;28;20090;-73
2023/07/28 05:46:48;;;;;;;12.80;11.90;;;;;;;;;;10272125;28;20490;-73
2023/07/28 05:51:45;;;;;;;14.85;13.75;;;;;;;;;;10261354;28;20106;-73
2023/07/28 05:56:41;;;;;;;14.07;13.07;;;;;;;;;;10283677;28;20049;-74
2023/07/28 06:01:38;;;;;;;13.63;12.73;;;;;;;;;;10259595;28;20053;-73
2023/07/28 06:06:37;;;;;;;13.77;12.82;;;;;;;;;;10263996;28;20110;-74
2023/07/28 06:39:45;;;;;;;11.63;10.75;;;;;;;;;;10281446;22;20041;-74
2023/07/28 06:44:41;;;;;;;12.70;11.45;;;;;;;;;;10209649;28;20045;-74
2023/07/28 06:49:37;;;;;;;13.35;12.45;;;;;;;;;;10212372;28;20077;-72
2023/07/28 06:54:34;;;;;;;12.82;11.82;;;;;;;;;;10200707;28;20064;-71
2023/07/28 06:59:31;;;;;;;14.40;13.40;;;;;;;;;;10235817;28;20512;-72
2023/07/28 07:04:27;;;;;;;14.07;12.88;;;;;;;;;;10233166;28;20080;-72
2023/07/28 07:09:24;;;;;;;12.85;11.93;;;;;;;;;;10274320;23;20574;-73
2023/07/28 07:14:21;;;;;;;13.35;12.02;;;;;;;;;;10181351;28;20041;-74
2023/07/28 07:19:19;;;;;;;12.00;11.20;;;;;;;;;;10163382;28;20047;-73
2023/07/28 07:24:15;;;;;;;11.50;10.68;;;;;;;;;;10137542;28;20050;-72
2023/07/28 07:45:02;;;;;;;11.80;11.00;;;;;;;;;;8999802;22;20318;-72
2023/07/28 07:55:04;;;;;;;10.30;9.60;;;;;;;;;;8394446;26;20054;-72
2023/07/28 08:05:26;;;;;;;10.07;9.38;;;;;;;;;;2565303;23;20049;-72
2023/07/28 08:10:22;;;;;;;10.02;9.38;;;;;;;;;;10777876;22;20072;-72
2023/07/28 08:15:18;;;;;;;11.27;10.45;;;;;;;;;;10224802;28;20053;-73
2023/07/28 08:20:15;;;;;;;9.80;9.00;;;;;;;;;;10369151;22;20049;-72
2023/07/28 08:25:11;;;;;;;11.05;10.35;;;;;;;;;;10215938;28;20050;-72
2023/07/28 08:50:52;;;;;;;13.02;12.02;;;;;;;;;;1864889;22;20083;-72
2023/07/28 08:56:14;;;;;;;9.60;8.90;;;;;;;;;;10229312;28;20116;-73
2023/07/28 10:04:39;;;;;;;8.63;8.02;;;;;;;;;;10629157;22;20049;-72
2023/07/28 10:15:17;;;;;;;8.27;7.68;;;;;;;;;;10797072;22;20077;-75
2023/07/28 12:30:29;;;;;;;7.15;6.65;;;;;;;;;;4559257;22;20316;-73
2023/07/28 12:35:30;;;;;;;7.07;6.57;;;;;;;;;;10219047;28;20104;-72
2023/07/28 14:11:12;;;;;;;6.55;6.00;;;;;;;;;;10343511;22;20077;-74
2023/07/28 14:16:43;;;;;;;6.55;6.05;;;;;;;;;;10164988;28;20052;-74
2023/07/28 14:21:43;;;;;;;6.15;5.75;;;;;;;;;;10210457;28;20053;-74
2023/07/28 14:26:40;;;;;;;6.93;6.18;;;;;;;;;;10184654;28;20054;-74
2023/07/28 14:31:36;;;;;;;6.88;6.38;;;;;;;;;;10220481;28;20045;-74
2023/07/28 14:36:34;;;;;;;6.88;6.38;;;;;;;;;;10210138;28;20533;-74
2023/07/28 14:41:31;;;;;;;6.32;5.82;;;;;;;;;;10193338;28;20513;-74
2023/07/28 14:46:27;;;;;;;5.90;5.50;;;;;;;;;;10209657;28;20049;-74
2023/07/28 14:51:23;;;;;;;6.53;6.13;;;;;;;;;;10218275;28;20128;-74
2023/07/28 14:56:24;;;;;;;6.57;6.07;;;;;;;;;;10215401;28;20057;-74
2023/07/28 15:13:20;;;;;;;6.45;5.90;;;;;;;;;;10140075;28;20042;-74
2023/07/28 15:19:37;;;;;;;7.20;5.75;;;;;;;;;;10104602;28;20042;-74
2023/07/28 15:24:33;;;;;;;6.70;6.20;;;;;;;;;;10128641;28;20050;-74
2023/07/28 15:29:30;;;;;;;6.28;5.85;;;;;;;;;;10171779;23;20061;-74
2023/07/28 15:34:26;;;;;;;6.57;6.03;;;;;;;;;;10207328;28;20516;-74
2023/07/28 15:39:22;;;;;;;6.75;6.22;;;;;;;;;;10225264;28;20069;-74
2023/07/28 15:44:19;;;;;;;6.13;5.70;;;;;;;;;;10223957;28;20050;-74
2023/07/28 15:49:15;;;;;;;6.43;6.03;;;;;;;;;;10225485;28;20045;-74
2023/07/28 15:54:11;;;;;;;7.00;6.50;;;;;;;;;;10223085;28;20536;-74
2023/07/28 15:59:08;;;;;;;7.10;6.50;;;;;;;;;;10229187;28;20095;-74
2023/07/28 16:04:04;;;;;;;6.75;6.20;;;;;;;;;;10232276;28;20059;-74
2023/07/28 16:09:00;;;;;;;6.75;6.25;;;;;;;;;;10240696;28;20054;-74
2023/07/28 16:14:11;;;;;;;7.15;6.65;;;;;;;;;;10222902;28;20042;-74
2023/07/28 16:19:08;;;;;;;7.10;6.60;;;;;;;;;;10224751;28;20034;-74
2023/07/28 16:24:05;;;;;;;7.00;6.50;;;;;;;;;;10207546;28;20135;-73
2023/07/28 16:29:01;;;;;;;6.93;6.43;;;;;;;;;;10215319;28;20097;-74
2023/07/28 16:33:57;;;;;;;7.00;6.50;;;;;;;;;;10222434;28;20042;-74
2023/07/28 16:38:54;;;;;;;7.18;6.57;;;;;;;;;;10239360;28;20103;-73
2023/07/28 16:43:50;;;;;;;6.90;6.40;;;;;;;;;;10224181;28;20045;-73
2023/07/28 16:48:46;;;;;;;7.25;6.70;;;;;;;;;;10231920;28;20123;-73
2023/07/28 16:53:42;;;;;;;7.25;6.75;;;;;;;;;;10210863;28;20643;-73
2023/07/28 16:59:20;;;;;;;7.05;6.55;;;;;;;;;;10268019;23;20049;-73
2023/07/28 17:04:40;;;;;;;6.35;5.85;;;;;;;;;;10214828;28;20046;-73
2023/07/28 17:09:37;;;;;;;6.45;5.95;;;;;;;;;;10260798;22;20059;-73
2023/07/28 17:14:33;;;;;;;6.47;5.97;;;;;;;;;;10264727;28;20045;-73
2023/07/28 17:20:17;;;;;;;;;;;;;;;;;;;;;
2023/07/28 17:25:14;;;;;;;6.75;6.25;;;;;;;;;;10135261;28;20516;-73
2023/07/28 17:30:10;;;;;;;6.60;6.10;;;;;;;;;;10218494;28;20042;-73
2023/07/28 17:35:08;;;;;;;7.15;6.55;;;;;;;;;;10218068;28;20054;-73
2023/07/28 17:40:05;;;;;;;6.55;6.05;;;;;;;;;;10222378;28;20073;-73
2023/07/28 17:45:06;;;;;;;6.47;5.97;;;;;;;;;;10214426;28;20049;-73
2023/07/28 17:50:04;;;;;;;7.65;7.07;;;;;;;;;;10224576;28;20085;-73
2023/07/28 17:55:01;;;;;;;6.90;6.40;;;;;;;;;;10225288;28;20057;-73
2023/07/28 17:59:57;;;;;;;6.40;5.80;;;;;;;;;;10216177;28;20061;-73
2023/07/28 18:04:53;;;;;;;6.57;6.07;;;;;;;;;;10222627;28;20065;-72
2023/07/28 18:09:50;;;;;;;6.38;5.90;;;;;;;;;;10215020;28;20096;-73
2023/07/28 18:14:48;;;;;;;7.20;6.53;;;;;;;;;;10222635;28;20152;-73
2023/07/28 18:19:44;;;;;;;6.55;6.00;;;;;;;;;;10223520;28;20147;-73
2023/07/28 18:24:40;;;;;;;6.97;6.47;;;;;;;;;;10221860;28;20041;-73
2023/07/28 18:30:10;;;;;;;;;;;;;;;;;;;;;
2023/07/28 18:35:30;;;;;;;5.93;5.40;;;;;;;;;;10202798;28;20053;-72
2023/07/28 18:40:26;;;;;;;6.18;5.68;;;;;;;;;;10224534;28;20514;-73
2023/07/28 18:45:25;;;;;;;6.43;5.93;;;;;;;;;;10226444;28;20052;-73
2023/07/28 18:50:22;;;;;;;7.18;6.63;;;;;;;;;;10200457;28;20054;-73
2023/07/28 18:55:23;;;;;;;7.50;6.93;;;;;;;;;;10226529;28;20140;-72
2023/07/28 19:00:20;;;;;;;6.93;6.32;;;;;;;;;;10220692;28;20042;-73
2023/07/28 19:05:16;;;;;;;7.53;6.82;;;;;;;;;;10221259;28;20107;-73
2023/07/28 19:10:12;;;;;;;6.80;6.30;;;;;;;;;;10210460;28;20053;-73
2023/07/28 19:15:10;;;;;;;7.93;7.15;;;;;;;;;;10193158;28;20556;-73
2023/07/28 19:20:09;;;;;;;8.02;7.43;;;;;;;;;;10222676;28;20057;-72
2023/07/28 19:25:06;;;;;;;7.90;7.25;;;;;;;;;;10220267;28;20528;-73
2023/07/28 19:30:03;;;;;;;8.18;7.57;;;;;;;;;;10201804;28;20057;-73
2023/07/28 19:34:59;;;;;;;8.45;7.80;;;;;;;;;;10223574;28;20065;-72
2023/07/28 19:39:56;;;;;;;8.70;8.00;;;;;;;;;;10198129;28;20077;-72
2023/07/28 19:44:54;;;;;;;9.18;8.38;;;;;;;;;;10227025;28;20060;-73
2023/07/28 19:49:51;;;;;;;10.38;9.32;;;;;;;;;;10227935;28;20468;-72
2023/07/28 19:55:06;;;;;;;9.15;8.45;;;;;;;;;;10212261;28;20044;-72
2023/07/28 20:00:05;;;;;;;9.82;9.02;;;;;;;;;;10200212;28;20053;-73
2023/07/28 20:05:02;;;;;;;9.70;8.90;;;;;;;;;;10224260;28;20076;-73
2023/07/28 20:09:58;;;;;;;9.43;8.63;;;;;;;;;;10379248;22;20088;-72
2023/07/28 20:14:56;;;;;;;10.77;9.88;;;;;;;;;;10218013;28;20140;-72
2023/07/28 20:25:09;;;;;;;10.65;9.25;;;;;;;;;;10569372;22;20076;-72
2023/07/28 20:30:06;;;;;;;10.65;9.65;;;;;;;;;;10237251;28;20037;-72
2023/07/28 20:35:04;;;;;;;11.13;10.13;;;;;;;;;;10231917;28;20050;-72
2023/07/28 20:40:01;;;;;;;11.70;10.63;;;;;;;;;;10224631;28;20140;-72
2023/07/28 20:44:57;;;;;;;11.82;10.75;;;;;;;;;;10229860;28;20132;-72
2023/07/28 20:49:53;;;;;;;12.10;11.10;;;;;;;;;;10232030;28;20061;-72
2023/07/28 20:54:50;;;;;;;12.27;11.20;;;;;;;;;;10235283;28;20076;-72
2023/07/28 20:59:46;;;;;;;12.63;11.43;;;;;;;;;;10214567;28;20091;-72
2023/07/28 21:04:43;;;;;;;11.93;10.93;;;;;;;;;;10239151;28;20041;-73
2023/07/28 21:15:10;;;;;;;12.13;11.02;;;;;;;;;;10355235;23;20085;-72
2023/07/28 21:20:07;;;;;;;13.00;11.63;;;;;;;;;;10206167;28;20057;-72
2023/07/28 21:25:03;;;;;;;13.95;12.75;;;;;;;;;;10210625;28;20513;-68
2023/07/28 21:30:00;;;;;;;12.73;11.55;;;;;;;;;;10214423;28;20559;-68
2023/07/28 21:34:56;;;;;;;12.95;11.75;;;;;;;;;;10222464;28;20472;-67
2023/07/28 21:39:52;;;;;;;13.23;12.02;;;;;;;;;;10219371;28;20076;-67
2023/07/28 21:44:49;;;;;;;13.63;12.43;;;;;;;;;;10204527;28;20144;-67
2023/07/28 21:49:45;;;;;;;13.98;12.77;;;;;;;;;;10213593;28;20057;-67
2023/07/28 21:54:42;;;;;;;14.20;12.80;;;;;;;;;;10210784;28;20065;-67
2023/07/28 21:59:38;;;;;;;14.82;13.30;;;;;;;;;;10224902;28;20478;-68
2023/07/28 22:04:34;;;;;;;15.02;13.63;;;;;;;;;;10221710;28;20041;-69
2023/07/28 22:09:31;;;;;;;16.48;14.77;;;;;;;;;;10217571;28;20575;-69
2023/07/28 22:14:27;;;;;;;14.90;13.45;;;;;;;;;;10219638;28;20069;-69
2023/07/28 22:19:23;;;;;;;15.93;14.43;;;;;;;;;;10219694;28;20041;-68
2023/07/28 22:24:19;;;;;;;16.13;14.65;;;;;;;;;;10221573;28;20049;-68
2023/07/28 22:29:16;;;;;;;16.40;14.80;;;;;;;;;;10219706;28;20041;-68
2023/07/28 22:34:12;;;;;;;16.25;14.40;;;;;;;;;;10213392;28;20092;-68
2023/07/28 22:39:08;;;;;;;16.05;14.38;;;;;;;;;;10215170;28;20053;-68
2023/07/28 22:44:05;;;;;;;16.33;14.63;;;;;;;;;;10218999;28;20088;-69
2023/07/28 22:49:01;;;;;;;17.38;15.88;;;;;;;;;;10213574;28;20616;-70
2023/07/28 22:53:57;;;;;;;15.90;14.32;;;;;;;;;;10212831;28;20547;-71
2023/07/28 22:58:54;;;;;;;16.60;14.75;;;;;;;;;;10219194;28;20111;-70
2023/07/28 23:03:50;;;;;;;14.98;13.55;;;;;;;;;;10222047;28;20526;-70
2023/07/28 23:08:47;;;;;;;16.05;14.27;;;;;;;;;;10205610;28;20041;-69
2023/07/28 23:13:44;;;;;;;15.23;13.73;;;;;;;;;;10230035;28;20049;-67
2023/07/28 23:18:40;;;;;;;15.65;14.15;;;;;;;;;;10224377;28;20077;-69
2023/07/28 23:23:36;;;;;;;15.35;13.85;;;;;;;;;;10226771;28;20103;-69
2023/07/28 23:28:33;;;;;;;15.82;14.23;;;;;;;;;;10223913;28;20517;-69
2023/07/28 23:33:31;;;;;;;16.38;14.85;;;;;;;;;;10221655;28;20052;-70
2023/07/28 23:38:27;;;;;;;16.15;14.52;;;;;;;;;;10216112;28;20053;-69
2023/07/28 23:43:23;;;;;;;15.65;14.32;;;;;;;;;;10224334;28;20054;-68
2023/07/28 23:48:21;;;;;;;15.93;14.43;;;;;;;;;;10208762;28;20069;-68
2023/07/28 23:53:17;;;;;;;15.85;14.25;;;;;;;;;;10218712;28;20046;-68
2023/07/28 23:58:15;;;;;;;16.00;14.40;;;;;;;;;;10225734;28;20460;-68
